createdAt,value
2022-11-10T00:08:47.668Z,11.2
2022-11-10T00:18:22.988Z,11.2
2022-11-10T00:28:47.675Z,11.2
2022-11-10T00:48:23.002Z,11.1
2022-11-10T00:58:47.678Z,10.9
2022-11-10T01:08:23.011Z,10.8
2022-11-10T01:18:23.015Z,10.8
2022-11-10T01:28:23.019Z,10.7
2022-11-10T01:38:23.027Z,10.6
2022-11-10T01:48:23.026Z,10.6
2022-11-10T01:58:47.696Z,10.5
2022-11-10T02:08:23.027Z,10.5
2022-11-10T02:18:23.036Z,10.5
2022-11-10T02:28:23.034Z,10.5
2022-11-10T02:38:23.042Z,10.5
2022-11-10T02:48:23.036Z,10.4
2022-11-10T02:58:23.055Z,10.4
2022-11-10T03:08:47.721Z,10.4
2022-11-10T03:18:47.720Z,10.3
2022-11-10T03:28:47.722Z,10.3
2022-11-10T03:38:23.054Z,10.3
2022-11-10T03:48:23.062Z,10.3
2022-11-10T03:58:23.062Z,10.2
2022-11-10T04:08:23.059Z,10.1
2022-11-10T04:18:23.069Z,10.0
2022-11-10T04:28:23.065Z,10.0
2022-11-10T04:38:23.087Z,9.9
2022-11-10T04:48:23.081Z,9.9
2022-11-10T04:58:23.078Z,9.9
2022-11-10T05:08:23.081Z,9.9
2022-11-10T05:18:23.084Z,9.8
2022-11-10T05:28:23.094Z,9.8
2022-11-10T05:38:23.087Z,9.7
2022-11-10T05:48:23.098Z,9.7
2022-11-10T05:58:23.104Z,9.6
2022-11-10T06:08:23.103Z,9.7
2022-11-10T06:18:23.100Z,9.7
2022-11-10T06:58:23.113Z,9.6
2022-11-10T07:08:47.809Z,9.6
2022-11-10T07:18:23.119Z,9.7
2022-11-10T07:28:47.797Z,9.7
2022-11-10T07:38:47.790Z,9.8
2022-11-10T07:58:23.129Z,10.1
2022-11-10T08:08:47.814Z,10.2
2022-11-10T08:18:23.152Z,10.4
2022-11-10T08:28:23.135Z,10.5
2022-11-10T08:48:23.148Z,10.9
2022-11-10T08:58:53.187Z,11.2
2022-11-10T09:08:47.823Z,11.5
2022-11-10T09:18:23.071Z,11.8
2022-11-10T09:28:23.067Z,12.0
2022-11-10T09:38:23.337Z,12.3
2022-11-10T09:48:23.395Z,12.6
2022-11-10T09:58:23.419Z,12.8
2022-11-10T10:08:23.376Z,13.1
2022-11-10T10:18:23.381Z,13.5
2022-11-10T10:28:23.657Z,13.8
2022-11-10T10:38:23.470Z,14.1
2022-11-10T10:48:23.490Z,14.3
2022-11-10T10:58:23.560Z,14.6
2022-11-10T11:08:23.502Z,15.0
2022-11-10T11:18:23.267Z,15.2
2022-11-10T11:28:23.421Z,15.4
2022-11-10T11:38:23.359Z,15.8
2022-11-10T11:48:23.423Z,16.0
2022-11-10T11:58:23.414Z,16.2
2022-11-10T12:08:23.476Z,16.3
2022-11-10T12:18:23.534Z,16.4
2022-11-10T12:28:23.569Z,16.5
2022-11-10T12:38:23.502Z,16.7
2022-11-10T12:48:23.429Z,17.0
2022-11-10T12:58:23.580Z,17.1
2022-11-10T13:08:23.734Z,17.1
2022-11-10T13:18:23.546Z,17.1
2022-11-10T13:28:23.572Z,17.0
2022-11-10T13:38:23.504Z,17.0
2022-11-10T13:48:23.453Z,16.7
2022-11-10T13:58:23.564Z,16.6
2022-11-10T14:08:23.581Z,16.4
2022-11-10T14:18:23.390Z,16.2
2022-11-10T14:28:23.620Z,16.1
2022-11-10T14:38:23.679Z,16.0
2022-11-10T14:48:23.516Z,15.9
2022-11-10T14:58:23.656Z,15.8
2022-11-10T15:08:23.458Z,15.6
2022-11-10T18:32:11.771Z,22.6
2022-11-10T18:37:11.779Z,21.8
2022-11-10T18:42:11.777Z,21.5
2022-11-10T18:47:11.777Z,21.4
2022-11-10T18:52:11.784Z,21.3
2022-11-10T18:57:11.785Z,21.3
2022-11-10T19:02:11.795Z,21.3
2022-11-10T19:07:11.865Z,21.4
2022-11-10T19:12:11.807Z,21.4
2022-11-10T19:17:11.799Z,21.5
2022-11-10T19:22:11.801Z,21.5
2022-11-10T19:27:11.797Z,21.5
2022-11-10T19:32:11.804Z,21.5
2022-11-10T19:37:11.804Z,21.5
2022-11-10T19:42:11.805Z,21.6
2022-11-10T19:47:11.835Z,21.6
2022-11-10T19:52:11.807Z,21.5
2022-11-10T19:57:11.808Z,21.5
2022-11-10T20:02:13.506Z,21.5
